Time;durP1;ratioP1;P1;durP2;ratioP2;P2;SDS_P1;SDS_P2;PMS_P1;PMS_P2;Temp;Humidity;BMP_temperature;BMP_pressure;BME280_temperature;BME280_humidity;BME280_pressure;Samples;Min_cycle;Max_cycle;Signal;HPM_P1;HPM_P2
2023/09/25 00:01:47;;;;;;;4.32;2.20;;;;;;;;;;6175449;28;20051;-84
2023/09/25 00:04:49;;;;;;;3.78;2.25;;;;;;;;;;6155153;28;20073;-83
2023/09/25 00:07:51;;;;;;;2.60;2.13;;;;;;;;;;6137610;28;20069;-83
2023/09/25 00:10:53;;;;;;;3.17;2.28;;;;;;;;;;6159356;28;20046;-83
2023/09/25 00:13:56;;;;;;;2.88;2.20;;;;;;;;;;6137905;28;20616;-83
2023/09/25 00:16:58;;;;;;;;;;;;;;;;;;6169628;28;20046;-83
2023/09/25 00:20:00;;;;;;;4.28;2.08;;;;;;;;;;6156437;28;19929;-83
2023/09/25 00:23:01;;;;;;;2.67;2.13;;;;;;;;;;6136508;28;20062;-83
2023/09/25 00:26:06;;;;;;;3.80;1.75;;;;;;;;;;6157175;28;20089;-83
2023/09/25 00:29:11;;;;;;;3.70;1.90;;;;;;;;;;6153564;28;20066;-82
2023/09/25 00:32:12;;;;;;;;;;;;;;;;;;6160607;28;20045;-83
2023/09/25 00:35:14;;;;;;;2.50;1.90;;;;;;;;;;6164858;28;19976;-83
2023/09/25 00:38:16;;;;;;;3.95;1.92;;;;;;;;;;6140049;28;20042;-83
2023/09/25 00:41:18;;;;;;;4.65;1.95;;;;;;;;;;6166227;28;20093;-82
2023/09/25 00:44:22;;;;;;;2.37;1.77;;;;;;;;;;6134167;28;20046;-83
2023/09/25 00:47:24;;;;;;;2.22;2.03;;;;;;;;;;6150736;28;20403;-83
2023/09/25 00:50:29;;;;;;;3.03;2.30;;;;;;;;;;6150842;28;20054;-83
2023/09/25 00:53:31;;;;;;;4.72;1.90;;;;;;;;;;6154273;28;20519;-83
2023/09/25 00:56:34;;;;;;;3.63;2.00;;;;;;;;;;6166734;28;20054;-83
2023/09/25 00:59:39;;;;;;;2.70;1.95;;;;;;;;;;6164428;28;20047;-83
2023/09/25 01:02:41;;;;;;;2.25;1.70;;;;;;;;;;6165572;28;20057;-83
2023/09/25 01:05:43;;;;;;;2.90;1.70;;;;;;;;;;6170483;28;20056;-83
2023/09/25 01:08:45;;;;;;;3.25;2.30;;;;;;;;;;6143807;28;20090;-83
2023/09/25 01:11:46;;;;;;;4.65;2.35;;;;;;;;;;6152760;28;20055;-83
2023/09/25 01:14:48;;;;;;;3.50;2.38;;;;;;;;;;6153949;28;20054;-83
2023/09/25 01:17:50;;;;;;;3.45;2.30;;;;;;;;;;6167397;28;20062;-83
2023/09/25 01:20:51;;;;;;;4.57;2.25;;;;;;;;;;6172815;28;20047;-82
2023/09/25 01:23:53;;;;;;;12.23;2.60;;;;;;;;;;6168007;28;20610;-83
2023/09/25 01:26:54;;;;;;;5.20;2.70;;;;;;;;;;6172528;28;20498;-82
2023/09/25 01:29:56;;;;;;;3.38;2.22;;;;;;;;;;6152219;28;20055;-82
2023/09/25 01:32:58;;;;;;;3.47;2.47;;;;;;;;;;6156629;28;20051;-83
2023/09/25 01:35:59;;;;;;;3.88;2.25;;;;;;;;;;6170208;28;20047;-83
2023/09/25 01:39:02;;;;;;;6.40;2.70;;;;;;;;;;6164735;28;20051;-82
2023/09/25 01:42:04;;;;;;;5.13;2.75;;;;;;;;;;6155434;28;20211;-83
2023/09/25 01:45:08;;;;;;;4.82;2.70;;;;;;;;;;6175901;28;20049;-83
2023/09/25 01:48:11;;;;;;;4.15;2.90;;;;;;;;;;6167082;28;20426;-83
2023/09/25 01:51:13;;;;;;;3.80;2.20;;;;;;;;;;6156578;28;20051;-83
2023/09/25 01:54:15;;;;;;;3.33;2.25;;;;;;;;;;6184654;28;20047;-84
2023/09/25 01:57:16;;;;;;;4.82;2.30;;;;;;;;;;6180362;28;20047;-84
2023/09/25 02:00:18;;;;;;;3.30;2.17;;;;;;;;;;6180712;28;20027;-83
2023/09/25 02:03:21;;;;;;;3.55;2.10;;;;;;;;;;6191572;28;20031;-83
2023/09/25 02:06:23;;;;;;;2.90;2.03;;;;;;;;;;6179793;28;20075;-87
2023/09/25 02:09:25;;;;;;;2.65;1.80;;;;;;;;;;6196970;28;20031;-87
2023/09/25 02:12:27;;;;;;;3.30;1.92;;;;;;;;;;6153205;28;20066;-85
2023/09/25 02:15:29;;;;;;;5.38;2.67;;;;;;;;;;6163859;28;20039;-83
2023/09/25 02:18:30;;;;;;;3.67;2.25;;;;;;;;;;6173441;28;20351;-83
2023/09/25 02:21:32;;;;;;;3.50;2.38;;;;;;;;;;6166630;28;20051;-84
2023/09/25 02:24:35;;;;;;;3.75;2.80;;;;;;;;;;6155699;28;20066;-83
2023/09/25 02:27:38;;;;;;;5.17;3.00;;;;;;;;;;6165740;28;20133;-84
2023/09/25 02:30:40;;;;;;;2.63;2.22;;;;;;;;;;6148791;28;20414;-84
2023/09/25 02:33:41;;;;;;;3.63;2.25;;;;;;;;;;6164039;28;20054;-84
2023/09/25 02:36:45;;;;;;;;;;;;;;;;;;6153956;28;20616;-83
2023/09/25 02:39:47;;;;;;;3.17;1.90;;;;;;;;;;6155288;28;19922;-84
2023/09/25 02:42:49;;;;;;;3.08;1.88;;;;;;;;;;6157222;28;20410;-83
2023/09/25 02:45:52;;;;;;;3.70;1.95;;;;;;;;;;6164693;28;20042;-83
2023/09/25 02:48:54;;;;;;;3.55;2.22;;;;;;;;;;6164157;28;20506;-83
2023/09/25 02:51:55;;;;;;;4.38;2.47;;;;;;;;;;6163827;28;20106;-83
2023/09/25 02:54:58;;;;;;;3.85;2.15;;;;;;;;;;6164270;28;20054;-84
2023/09/25 02:58:00;;;;;;;3.88;2.55;;;;;;;;;;6164971;28;20042;-84
2023/09/25 03:01:02;;;;;;;5.10;2.47;;;;;;;;;;6163593;28;20073;-84
2023/09/25 03:04:04;;;;;;;2.83;2.22;;;;;;;;;;6145735;28;20530;-84
2023/09/25 03:07:06;;;;;;;4.78;2.55;;;;;;;;;;6147622;28;20051;-84
2023/09/25 03:10:08;;;;;;;6.22;2.60;;;;;;;;;;6132970;28;20054;-83
2023/09/25 03:13:10;;;;;;;4.55;3.97;;;;;;;;;;6168262;28;20057;-83
2023/09/25 03:16:15;;;;;;;4.18;2.60;;;;;;;;;;6159161;28;20047;-82
2023/09/25 03:19:17;;;;;;;3.10;2.38;;;;;;;;;;6166412;28;20073;-84
2023/09/25 03:22:19;;;;;;;4.72;2.55;;;;;;;;;;6165197;28;20150;-83
2023/09/25 03:25:21;;;;;;;4.07;2.45;;;;;;;;;;6136571;28;20183;-85
2023/09/25 03:28:23;;;;;;;3.58;2.28;;;;;;;;;;6150344;28;20050;-82
2023/09/25 03:31:24;;;;;;;2.40;2.13;;;;;;;;;;6141615;28;20051;-84
2023/09/25 03:34:27;;;;;;;2.65;2.13;;;;;;;;;;6150607;28;20046;-82
2023/09/25 03:37:28;;;;;;;2.50;2.30;;;;;;;;;;6154313;28;20163;-82
2023/09/25 03:40:30;;;;;;;3.75;2.38;;;;;;;;;;6161999;28;20070;-82
2023/09/25 03:43:31;;;;;;;2.20;1.90;;;;;;;;;;6153500;28;20053;-82
2023/09/25 03:46:33;;;;;;;7.50;2.20;;;;;;;;;;6171270;28;20039;-84
2023/09/25 03:49:37;;;;;;;2.97;2.10;;;;;;;;;;6173373;28;20283;-84
2023/09/25 03:52:38;;;;;;;2.80;2.10;;;;;;;;;;6156910;28;20051;-84
2023/09/25 03:55:40;;;;;;;3.10;2.15;;;;;;;;;;6157295;28;20047;-83
2023/09/25 03:58:42;;;;;;;4.73;2.40;;;;;;;;;;6171198;28;20047;-84
2023/09/25 04:01:44;;;;;;;4.65;2.65;;;;;;;;;;6172358;28;20055;-83
2023/09/25 04:04:46;;;;;;;3.33;2.05;;;;;;;;;;6177452;28;20552;-84
2023/09/25 04:07:48;;;;;;;5.07;2.33;;;;;;;;;;6157545;28;20065;-87
2023/09/25 04:10:50;;;;;;;4.40;2.47;;;;;;;;;;6162248;28;20062;-88
2023/09/25 04:13:52;;;;;;;4.55;2.30;;;;;;;;;;6161988;28;20398;-86
2023/09/25 04:16:54;;;;;;;4.90;2.30;;;;;;;;;;6178493;28;20050;-86
2023/09/25 04:19:57;;;;;;;6.18;2.78;;;;;;;;;;6166291;28;20169;-87
2023/09/25 04:22:59;;;;;;;9.68;3.17;;;;;;;;;;6172490;28;20406;-86
2023/09/25 04:26:00;;;;;;;19.95;2.95;;;;;;;;;;6156199;28;20046;-86
2023/09/25 04:29:04;;;;;;;8.38;3.25;;;;;;;;;;6155309;28;20050;-85
2023/09/25 04:32:06;;;;;;;5.22;2.90;;;;;;;;;;6161076;28;20039;-85
2023/09/25 04:35:08;;;;;;;6.32;3.30;;;;;;;;;;6159193;28;20043;-85
2023/09/25 04:38:10;;;;;;;7.17;4.07;;;;;;;;;;6177275;28;20109;-86
2023/09/25 04:41:12;;;;;;;7.13;3.75;;;;;;;;;;6171832;28;20880;-88
2023/09/25 04:44:14;;;;;;;7.15;3.00;;;;;;;;;;6152616;28;20369;-86
2023/09/25 04:47:15;;;;;;;6.10;3.75;;;;;;;;;;6163078;28;20580;-85
2023/09/25 04:50:18;;;;;;;5.03;4.20;;;;;;;;;;6161262;28;20081;-86
2023/09/25 04:53:20;;;;;;;10.77;6.03;;;;;;;;;;6158275;28;20046;-85
2023/09/25 04:56:22;;;;;;;6.60;3.38;;;;;;;;;;6169037;28;20054;-85
2023/09/25 04:59:24;;;;;;;7.53;2.65;;;;;;;;;;6156178;28;20057;-85
2023/09/25 05:02:25;;;;;;;4.65;2.60;;;;;;;;;;6157270;28;20051;-85
2023/09/25 05:05:28;;;;;;;3.97;2.80;;;;;;;;;;6162784;28;20055;-86
2023/09/25 05:08:29;;;;;;;5.40;2.47;;;;;;;;;;6169776;28;20074;-86
2023/09/25 05:11:31;;;;;;;5.07;3.30;;;;;;;;;;6160475;28;20482;-87
2023/09/25 05:14:33;;;;;;;9.52;3.22;;;;;;;;;;6171491;28;20054;-84
2023/09/25 05:17:38;;;;;;;4.57;2.78;;;;;;;;;;6157137;28;20047;-84
2023/09/25 05:20:41;;;;;;;6.18;3.42;;;;;;;;;;6172409;28;20159;-84
2023/09/25 05:23:43;;;;;;;4.63;2.28;;;;;;;;;;6153334;28;20053;-85
2023/09/25 05:26:46;;;;;;;4.25;2.35;;;;;;;;;;6163357;28;20414;-85
2023/09/25 05:29:48;;;;;;;2.95;1.70;;;;;;;;;;6141219;28;20049;-86
2023/09/25 05:32:51;;;;;;;1.88;1.70;;;;;;;;;;6167716;28;20049;-84
2023/09/25 05:35:54;;;;;;;3.78;2.20;;;;;;;;;;6176851;28;20169;-84
2023/09/25 05:38:55;;;;;;;3.03;2.17;;;;;;;;;;6149058;28;20059;-84
2023/09/25 05:41:57;;;;;;;3.65;1.92;;;;;;;;;;6169892;28;20054;-84
2023/09/25 05:44:59;;;;;;;3.80;1.85;;;;;;;;;;6160036;28;20085;-85
2023/09/25 05:48:01;;;;;;;3.10;2.20;;;;;;;;;;6176110;28;20533;-85
2023/09/25 05:51:03;;;;;;;4.20;2.38;;;;;;;;;;6154427;28;20047;-84
2023/09/25 05:54:05;;;;;;;3.42;2.60;;;;;;;;;;6165579;28;20518;-85
2023/09/25 05:57:07;;;;;;;4.18;2.67;;;;;;;;;;6157192;28;20097;-86
2023/09/25 06:00:13;;;;;;;4.75;2.17;;;;;;;;;;6175876;28;20050;-87
2023/09/25 06:03:15;;;;;;;3.20;2.42;;;;;;;;;;6159480;28;20039;-85
2023/09/25 06:06:17;;;;;;;13.18;3.25;;;;;;;;;;6160614;28;20047;-85
2023/09/25 06:09:19;;;;;;;9.02;2.55;;;;;;;;;;6153613;28;20133;-86
2023/09/25 06:12:21;;;;;;;3.65;2.03;;;;;;;;;;6176892;28;20169;-86
2023/09/25 06:15:24;;;;;;;2.97;2.15;;;;;;;;;;6157943;28;20074;-86
2023/09/25 06:18:26;;;;;;;;;;;;;;;;;;6153586;28;20051;-86
2023/09/25 06:21:28;;;;;;;2.78;2.08;;;;;;;;;;6159979;28;19999;-86
2023/09/25 06:24:30;;;;;;;2.15;1.70;;;;;;;;;;6171710;28;20075;-86
2023/09/25 06:27:32;;;;;;;2.75;1.55;;;;;;;;;;6158293;28;20054;-86
2023/09/25 06:30:34;;;;;;;3.22;1.77;;;;;;;;;;6161554;28;20045;-87
2023/09/25 06:33:37;;;;;;;4.18;2.22;;;;;;;;;;6176949;28;20043;-87
2023/09/25 06:36:39;;;;;;;6.43;2.20;;;;;;;;;;6174300;28;20525;-87
2023/09/25 06:39:43;;;;;;;2.55;2.00;;;;;;;;;;6172857;28;20043;-86
2023/09/25 06:42:46;;;;;;;2.72;2.22;;;;;;;;;;6156641;28;20535;-86
2023/09/25 06:45:48;;;;;;;2.65;2.10;;;;;;;;;;6159894;28;20046;-86
2023/09/25 06:48:50;;;;;;;3.25;2.20;;;;;;;;;;6157470;28;20058;-85
2023/09/25 06:51:53;;;;;;;4.10;2.30;;;;;;;;;;6162094;28;20054;-86
2023/09/25 06:54:56;;;;;;;3.30;2.30;;;;;;;;;;6170846;28;20051;-86
2023/09/25 06:57:58;;;;;;;2.50;1.92;;;;;;;;;;6155248;28;20039;-86
2023/09/25 07:00:59;;;;;;;3.05;2.25;;;;;;;;;;6183215;28;20054;-85
2023/09/25 07:04:01;;;;;;;4.45;2.35;;;;;;;;;;6159771;28;20035;-85
2023/09/25 07:07:04;;;;;;;2.35;1.80;;;;;;;;;;6176212;28;20054;-85
2023/09/25 07:10:09;;;;;;;;;;;;;;;;;;6161464;28;20050;-88
2023/09/25 07:13:11;;;;;;;3.35;2.28;;;;;;;;;;6175770;28;20250;-86
2023/09/25 07:16:12;;;;;;;2.83;1.88;;;;;;;;;;6150614;28;20047;-86
2023/09/25 07:19:14;;;;;;;3.45;2.03;;;;;;;;;;6180194;28;20042;-85
2023/09/25 07:22:16;;;;;;;2.10;1.90;;;;;;;;;;6151353;28;20074;-86
2023/09/25 07:25:18;;;;;;;2.70;1.98;;;;;;;;;;6176189;28;20054;-85
2023/09/25 07:28:19;;;;;;;4.32;1.92;;;;;;;;;;6162434;28;20047;-85
2023/09/25 07:31:26;;;;;;;2.30;2.03;;;;;;;;;;6175452;28;20172;-87
2023/09/25 07:34:29;;;;;;;3.78;2.00;;;;;;;;;;6167566;28;20049;-86
2023/09/25 07:37:30;;;;;;;3.58;2.47;;;;;;;;;;6165175;28;20512;-88
2023/09/25 07:40:32;;;;;;;2.92;2.10;;;;;;;;;;6148134;28;20046;-85
2023/09/25 07:43:34;;;;;;;3.20;2.47;;;;;;;;;;6169172;28;20247;-86
2023/09/25 07:46:57;;;;;;;2.78;1.85;;;;;;;;;;6166500;28;20234;-85
2023/09/25 07:49:59;;;;;;;3.90;1.88;;;;;;;;;;6168944;28;20062;-86
2023/09/25 07:53:01;;;;;;;2.83;1.85;;;;;;;;;;6153555;28;20042;-84
2023/09/25 07:56:03;;;;;;;2.90;2.60;;;;;;;;;;6149826;28;20050;-85
2023/09/25 07:59:05;;;;;;;2.22;2.03;;;;;;;;;;6164278;28;20090;-86
2023/09/25 08:02:07;;;;;;;3.70;2.00;;;;;;;;;;6165843;28;20414;-84
2023/09/25 08:05:10;;;;;;;2.65;1.75;;;;;;;;;;6174710;28;20054;-87
2023/09/25 08:08:12;;;;;;;2.35;2.03;;;;;;;;;;6168464;28;20069;-84
2023/09/25 08:11:15;;;;;;;3.25;2.10;;;;;;;;;;6161718;28;20039;-86
2023/09/25 08:14:16;;;;;;;3.85;1.80;;;;;;;;;;6164760;28;20121;-84
2023/09/25 08:17:18;;;;;;;1.92;1.67;;;;;;;;;;6161672;28;20055;-85
2023/09/25 08:20:20;;;;;;;3.88;1.90;;;;;;;;;;6181198;28;20058;-86
2023/09/25 08:23:23;;;;;;;2.45;1.92;;;;;;;;;;6176517;28;20658;-86
2023/09/25 08:26:25;;;;;;;3.22;1.70;;;;;;;;;;6164913;28;20049;-86
2023/09/25 08:29:27;;;;;;;5.53;1.90;;;;;;;;;;6161200;28;20043;-86
2023/09/25 08:32:28;;;;;;;2.30;1.85;;;;;;;;;;6161755;28;20058;-86
2023/09/25 08:35:30;;;;;;;3.70;1.70;;;;;;;;;;6175840;28;20050;-84
2023/09/25 08:38:32;;;;;;;3.63;1.55;;;;;;;;;;6164263;28;20066;-85
2023/09/25 08:41:34;;;;;;;1.77;1.60;;;;;;;;;;6156218;28;20035;-85
2023/09/25 08:44:37;;;;;;;1.60;1.50;;;;;;;;;;6163322;28;20170;-85
2023/09/25 08:47:41;;;;;;;3.20;1.60;;;;;;;;;;6173957;28;20418;-84
2023/09/25 08:50:44;;;;;;;2.42;1.60;;;;;;;;;;6166166;28;20129;-83
2023/09/25 08:53:46;;;;;;;2.90;1.70;;;;;;;;;;6169670;28;20058;-84
2023/09/25 08:56:48;;;;;;;2.92;1.67;;;;;;;;;;6161398;28;20313;-83
2023/09/25 08:59:50;;;;;;;4.60;1.50;;;;;;;;;;6164482;28;20498;-85
2023/09/25 09:02:52;;;;;;;3.08;1.50;;;;;;;;;;6157354;28;20074;-83
2023/09/25 09:05:54;;;;;;;1.50;1.37;;;;;;;;;;6158631;28;20152;-85
2023/09/25 09:08:59;;;;;;;4.88;1.65;;;;;;;;;;6157234;28;20062;-88
2023/09/25 09:12:02;;;;;;;1.98;1.50;;;;;;;;;;6175657;28;20051;-85
2023/09/25 09:15:04;;;;;;;3.75;1.70;;;;;;;;;;6161522;28;20046;-84
2023/09/25 09:18:25;;;;;;;2.38;1.52;;;;;;;;;;6159694;28;20074;-85
2023/09/25 09:21:30;;;;;;;2.35;1.50;;;;;;;;;;6156498;28;20046;-84
2023/09/25 09:24:41;;;;;;;2.30;1.60;;;;;;;;;;6171677;28;20106;-86
2023/09/25 09:27:46;;;;;;;4.35;1.52;;;;;;;;;;6173714;28;20046;-82
2023/09/25 09:30:48;;;;;;;2.50;1.48;;;;;;;;;;6166263;28;20057;-84
2023/09/25 09:33:53;;;;;;;1.67;1.10;;;;;;;;;;6176902;28;20054;-84
2023/09/25 09:36:56;;;;;;;1.85;1.20;;;;;;;;;;6163495;28;20057;-83
2023/09/25 09:40:00;;;;;;;3.38;1.17;;;;;;;;;;6146163;28;20098;-87
2023/09/25 09:43:04;;;;;;;2.25;1.38;;;;;;;;;;6160832;28;20057;-86
2023/09/25 09:46:10;;;;;;;2.25;1.40;;;;;;;;;;6175546;28;20050;-85
2023/09/25 09:49:18;;;;;;;1.55;1.38;;;;;;;;;;6176538;28;20047;-86
2023/09/25 09:52:20;;;;;;;2.28;1.40;;;;;;;;;;6164326;28;20073;-85
2023/09/25 09:55:22;;;;;;;2.40;1.47;;;;;;;;;;6161578;28;20046;-84
2023/09/25 09:58:26;;;;;;;2.65;1.58;;;;;;;;;;6168286;28;20453;-83
2023/09/25 10:01:28;;;;;;;1.85;1.38;;;;;;;;;;6176321;28;20057;-84
2023/09/25 10:04:30;;;;;;;1.33;1.10;;;;;;;;;;6155466;28;20055;-84
2023/09/25 10:07:33;;;;;;;1.70;1.20;;;;;;;;;;6162876;28;20048;-83
2023/09/25 10:10:38;;;;;;;2.27;1.27;;;;;;;;;;6157721;28;20046;-85
2023/09/25 10:13:41;;;;;;;2.03;1.30;;;;;;;;;;6157893;28;20039;-86
2023/09/25 10:16:56;;;;;;;2.10;1.38;;;;;;;;;;6165084;28;20072;-85
2023/09/25 10:19:59;;;;;;;1.50;1.40;;;;;;;;;;6175041;28;20078;-85
2023/09/25 10:23:06;;;;;;;2.23;1.73;;;;;;;;;;6146619;28;20062;-84
2023/09/25 10:26:24;;;;;;;2.72;1.60;;;;;;;;;;6157926;28;20320;-85
2023/09/25 10:29:27;;;;;;;2.05;1.85;;;;;;;;;;6158914;28;20260;-84
2023/09/25 10:32:32;;;;;;;3.28;1.30;;;;;;;;;;6170720;28;20047;-84
2023/09/25 10:35:38;;;;;;;2.70;1.38;;;;;;;;;;6162350;28;20051;-84
2023/09/25 10:38:41;;;;;;;2.47;1.15;;;;;;;;;;6171821;28;20063;-82
2023/09/25 10:41:47;;;;;;;2.83;1.40;;;;;;;;;;6170663;28;20039;-84
2023/09/25 10:44:49;;;;;;;1.70;1.48;;;;;;;;;;6168582;28;20043;-84
2023/09/25 10:47:50;;;;;;;1.90;1.20;;;;;;;;;;6156006;28;20070;-84
2023/09/25 10:50:53;;;;;;;1.50;1.40;;;;;;;;;;6142935;28;20099;-84
2023/09/25 10:53:54;;;;;;;1.73;1.33;;;;;;;;;;6161412;28;20051;-84
2023/09/25 10:56:59;;;;;;;3.08;1.48;;;;;;;;;;6162403;28;20070;-83
2023/09/25 11:00:09;;;;;;;1.48;1.30;;;;;;;;;;6164656;28;20053;-81
2023/09/25 11:03:11;;;;;;;1.63;1.25;;;;;;;;;;6161886;28;20057;-81
2023/09/25 11:06:13;;;;;;;2.42;1.25;;;;;;;;;;6162810;28;20039;-81
2023/09/25 11:09:17;;;;;;;2.37;1.43;;;;;;;;;;6179997;28;20521;-82
2023/09/25 11:12:19;;;;;;;2.60;1.50;;;;;;;;;;6163812;28;20043;-83
2023/09/25 11:15:21;;;;;;;1.70;1.35;;;;;;;;;;6174592;28;20061;-83
2023/09/25 11:18:23;;;;;;;2.67;1.27;;;;;;;;;;6180765;28;20075;-80
2023/09/25 11:21:30;;;;;;;4.10;1.60;;;;;;;;;;6165110;28;20062;-79
2023/09/25 11:24:33;;;;;;;3.35;1.65;;;;;;;;;;6162285;28;20070;-79
2023/09/25 11:27:35;;;;;;;1.70;1.40;;;;;;;;;;6176394;28;20055;-81
2023/09/25 11:30:37;;;;;;;3.33;1.30;;;;;;;;;;6159012;28;20674;-78
2023/09/25 11:33:40;;;;;;;2.55;1.50;;;;;;;;;;6163793;28;20051;-83
2023/09/25 11:36:45;;;;;;;4.22;1.30;;;;;;;;;;6171912;28;20130;-82
2023/09/25 11:39:48;;;;;;;2.92;1.65;;;;;;;;;;6163218;28;20071;-82
2023/09/25 11:42:49;;;;;;;;;;;;;;;;;;6159618;28;20057;-83
2023/09/25 11:45:51;;;;;;;1.75;1.20;;;;;;;;;;6188904;28;19978;-82
2023/09/25 11:48:53;;;;;;;3.40;1.30;;;;;;;;;;6154679;28;20054;-83
2023/09/25 11:51:55;;;;;;;3.15;1.60;;;;;;;;;;6191567;28;20051;-82
2023/09/25 11:54:57;;;;;;;1.53;1.20;;;;;;;;;;6171887;28;20043;-81
2023/09/25 11:57:59;;;;;;;3.00;1.77;;;;;;;;;;6179767;28;20051;-82
2023/09/25 12:01:03;;;;;;;1.85;1.35;;;;;;;;;;6163387;28;20054;-82
2023/09/25 12:04:04;;;;;;;2.03;1.48;;;;;;;;;;6157183;28;20047;-83
2023/09/25 12:07:07;;;;;;;2.63;1.40;;;;;;;;;;6169413;28;20047;-82
2023/09/25 12:10:12;;;;;;;3.20;1.70;;;;;;;;;;6178776;28;20054;-81
2023/09/25 12:13:15;;;;;;;1.83;1.38;;;;;;;;;;6181407;28;20461;-85
2023/09/25 12:16:17;;;;;;;2.42;1.50;;;;;;;;;;6168266;28;20070;-83
2023/09/25 12:19:20;;;;;;;2.30;1.38;;;;;;;;;;6165362;28;20077;-84
2023/09/25 12:22:22;;;;;;;2.63;1.87;;;;;;;;;;6163293;28;20054;-83
2023/09/25 12:25:24;;;;;;;2.73;1.50;;;;;;;;;;6169450;28;20458;-82
2023/09/25 12:28:29;;;;;;;2.90;1.50;;;;;;;;;;6165383;28;20047;-82
2023/09/25 12:31:31;;;;;;;2.85;1.50;;;;;;;;;;6175321;28;20137;-82
2023/09/25 12:34:33;;;;;;;3.75;1.60;;;;;;;;;;6182624;28;20047;-79
2023/09/25 12:37:35;;;;;;;3.23;1.30;;;;;;;;;;6158295;28;20055;-81
2023/09/25 12:40:37;;;;;;;2.30;1.57;;;;;;;;;;6154043;28;20075;-80
2023/09/25 12:43:39;;;;;;;2.17;1.60;;;;;;;;;;6155328;28;20085;-80
2023/09/25 12:46:41;;;;;;;3.13;1.60;;;;;;;;;;6140946;28;20054;-80
2023/09/25 12:49:44;;;;;;;2.85;1.33;;;;;;;;;;6157032;28;20047;-83
2023/09/25 12:52:46;;;;;;;2.88;1.67;;;;;;;;;;6154303;28;20538;-83
2023/09/25 12:55:48;;;;;;;3.20;1.90;;;;;;;;;;6158745;28;20049;-83
2023/09/25 12:58:51;;;;;;;2.70;1.67;;;;;;;;;;6161267;28;20047;-83
2023/09/25 13:01:52;;;;;;;36.00;32.72;;;;;;;;;;6158368;28;20422;-82
2023/09/25 13:04:54;;;;;;;2.73;1.70;;;;;;;;;;6167134;28;20070;-82
2023/09/25 13:07:56;;;;;;;1.67;1.37;;;;;;;;;;6175473;28;20095;-81
2023/09/25 13:10:57;;;;;;;2.60;1.50;;;;;;;;;;6157759;28;20062;-81
2023/09/25 13:14:02;;;;;;;4.00;1.52;;;;;;;;;;6167575;28;20047;-84
2023/09/25 13:17:04;;;;;;;2.35;1.60;;;;;;;;;;6166113;28;20058;-84
2023/09/25 13:20:09;;;;;;;2.20;1.75;;;;;;;;;;6152111;28;20093;-84
2023/09/25 13:23:11;;;;;;;2.67;1.70;;;;;;;;;;6149769;28;20130;-83
2023/09/25 13:26:13;;;;;;;3.17;2.07;;;;;;;;;;6155250;28;20502;-82
2023/09/25 13:29:16;;;;;;;2.80;1.53;;;;;;;;;;6154771;28;20063;-84
2023/09/25 13:32:18;;;;;;;3.38;1.70;;;;;;;;;;6153688;28;20047;-84
2023/09/25 13:35:22;;;;;;;2.20;1.75;;;;;;;;;;6179495;28;20043;-83
2023/09/25 13:38:24;;;;;;;1.80;1.40;;;;;;;;;;6154810;28;20058;-84
2023/09/25 13:41:26;;;;;;;3.95;1.60;;;;;;;;;;6156503;28;20173;-84
2023/09/25 13:44:28;;;;;;;3.38;1.58;;;;;;;;;;6169769;28;20047;-84
2023/09/25 13:47:29;;;;;;;3.13;1.60;;;;;;;;;;6160646;28;20066;-83
2023/09/25 13:50:34;;;;;;;1.52;1.25;;;;;;;;;;6151318;28;20082;-84
2023/09/25 13:53:37;;;;;;;1.83;1.27;;;;;;;;;;6173788;28;20046;-84
2023/09/25 13:56:38;;;;;;;1.60;1.50;;;;;;;;;;6163272;28;20051;-83
2023/09/25 13:59:42;;;;;;;3.65;1.63;;;;;;;;;;6154445;28;20526;-84
2023/09/25 14:02:44;;;;;;;4.75;1.77;;;;;;;;;;6167449;28;20058;-83
2023/09/25 14:05:46;;;;;;;3.58;2.00;;;;;;;;;;6174478;28;20066;-81
2023/09/25 14:08:48;;;;;;;2.28;1.90;;;;;;;;;;6151983;28;20051;-82
2023/09/25 14:11:51;;;;;;;3.65;1.50;;;;;;;;;;6152917;28;20050;-85
2023/09/25 14:14:54;;;;;;;2.30;1.80;;;;;;;;;;6149802;28;20081;-85
2023/09/25 14:17:55;;;;;;;1.98;1.70;;;;;;;;;;6168229;28;20141;-86
2023/09/25 14:20:57;;;;;;;4.47;2.33;;;;;;;;;;6159582;28;20534;-85
2023/09/25 14:23:59;;;;;;;3.35;1.77;;;;;;;;;;6158852;28;20051;-85
2023/09/25 14:27:01;;;;;;;2.05;1.60;;;;;;;;;;6167109;28;20054;-84
2023/09/25 14:30:03;;;;;;;2.53;1.52;;;;;;;;;;6153623;28;20106;-85
2023/09/25 14:33:06;;;;;;;2.22;1.58;;;;;;;;;;6156467;28;20053;-84
2023/09/25 14:36:08;;;;;;;4.25;1.95;;;;;;;;;;6156520;28;20066;-84
2023/09/25 14:39:10;;;;;;;2.93;1.60;;;;;;;;;;6152036;28;20047;-84
2023/09/25 14:42:11;;;;;;;2.80;2.30;;;;;;;;;;6161507;28;20078;-84
2023/09/25 14:45:15;;;;;;;3.33;1.75;;;;;;;;;;6149283;28;20353;-83
2023/09/25 14:48:16;;;;;;;2.88;1.60;;;;;;;;;;6159758;28;20049;-83
2023/09/25 14:51:18;;;;;;;6.32;1.73;;;;;;;;;;6167683;28;20073;-83
2023/09/25 14:54:20;;;;;;;2.10;1.77;;;;;;;;;;6152908;28;20257;-82
2023/09/25 14:57:21;;;;;;;5.10;1.27;;;;;;;;;;6165949;28;20078;-81
2023/09/25 15:00:23;;;;;;;4.05;1.77;;;;;;;;;;6168663;28;20051;-83
2023/09/25 15:03:25;;;;;;;2.97;1.65;;;;;;;;;;6156074;28;20046;-82
2023/09/25 15:06:27;;;;;;;2.35;1.75;;;;;;;;;;6170849;28;20043;-82
2023/09/25 15:09:29;;;;;;;3.30;1.50;;;;;;;;;;6158753;28;20050;-81
2023/09/25 15:12:31;;;;;;;2.30;1.57;;;;;;;;;;6168466;28;20434;-84
2023/09/25 15:15:33;;;;;;;2.75;1.40;;;;;;;;;;6169634;28;20054;-85
2023/09/25 15:18:35;;;;;;;3.50;1.85;;;;;;;;;;6154948;28;20039;-82
2023/09/25 15:21:36;;;;;;;3.55;1.90;;;;;;;;;;6159455;28;20451;-84
2023/09/25 15:24:38;;;;;;;2.53;1.63;;;;;;;;;;6171476;28;20056;-84
2023/09/25 15:27:41;;;;;;;1.63;1.30;;;;;;;;;;6155470;28;20061;-82
2023/09/25 15:30:43;;;;;;;2.15;1.60;;;;;;;;;;6153441;28;20039;-83
2023/09/25 15:33:45;;;;;;;2.00;1.50;;;;;;;;;;6156029;28;20053;-84
2023/09/25 15:36:46;;;;;;;2.72;1.60;;;;;;;;;;6170981;28;20053;-81
2023/09/25 15:39:48;;;;;;;1.98;1.55;;;;;;;;;;6174468;28;20568;-82
2023/09/25 15:42:50;;;;;;;1.75;1.55;;;;;;;;;;6170918;28;20133;-82
2023/09/25 15:45:53;;;;;;;4.03;1.50;;;;;;;;;;6170687;28;20043;-83
2023/09/25 15:48:55;;;;;;;1.42;1.33;;;;;;;;;;6170684;28;20099;-84
2023/09/25 15:51:57;;;;;;;1.80;1.60;;;;;;;;;;6156431;28;20047;-84
2023/09/25 15:54:59;;;;;;;3.15;1.55;;;;;;;;;;6161662;28;20051;-84
2023/09/25 15:58:03;;;;;;;5.05;1.80;;;;;;;;;;6176200;28;20121;-83
2023/09/25 16:01:05;;;;;;;2.28;1.40;;;;;;;;;;6168717;28;20047;-82
2023/09/25 16:04:06;;;;;;;2.15;1.55;;;;;;;;;;6163461;28;20058;-83
2023/09/25 16:07:08;;;;;;;2.63;1.50;;;;;;;;;;6164790;28;20047;-85
2023/09/25 16:10:13;;;;;;;11.20;10.18;;;;;;;;;;6176099;28;20043;-83
2023/09/25 16:13:15;;;;;;;4.53;3.40;;;;;;;;;;6157471;28;20147;-85
2023/09/25 16:16:16;;;;;;;12.75;8.75;;;;;;;;;;6180097;28;20050;-87
2023/09/25 16:19:18;;;;;;;7.05;5.97;;;;;;;;;;6178206;28;20053;-87
2023/09/25 16:22:20;;;;;;;3.97;2.55;;;;;;;;;;6155240;28;20054;-88
2023/09/25 16:25:22;;;;;;;4.88;2.90;;;;;;;;;;6165423;28;20057;-87
2023/09/25 16:28:24;;;;;;;9.25;8.35;;;;;;;;;;6166353;28;20046;-86
2023/09/25 16:31:26;;;;;;;3.30;2.55;;;;;;;;;;6181387;28;20066;-86
2023/09/25 16:34:27;;;;;;;8.98;4.82;;;;;;;;;;6172989;28;20042;-85
2023/09/25 16:37:29;;;;;;;4.32;3.00;;;;;;;;;;6184859;28;20047;-88
2023/09/25 16:40:31;;;;;;;3.20;2.20;;;;;;;;;;6172614;28;20059;-87
2023/09/25 16:43:34;;;;;;;2.53;1.98;;;;;;;;;;6173680;28;20078;-86
2023/09/25 16:46:35;;;;;;;;;;;;;;;;;;6156581;28;20043;-87
2023/09/25 16:49:37;;;;;;;3.05;1.65;;;;;;;;;;6172362;28;19930;-86
2023/09/25 16:52:41;;;;;;;3.72;1.88;;;;;;;;;;6161260;28;20047;-87
2023/09/25 16:55:49;;;;;;;2.55;1.80;;;;;;;;;;6158799;28;20127;-86
2023/09/25 16:58:51;;;;;;;3.92;2.28;;;;;;;;;;6155787;28;20062;-89
2023/09/25 17:01:53;;;;;;;3.70;2.13;;;;;;;;;;6156407;28;20125;-86
2023/09/25 17:04:55;;;;;;;2.15;1.85;;;;;;;;;;6159315;28;20070;-86
2023/09/25 17:07:57;;;;;;;2.08;1.75;;;;;;;;;;6161568;28;20050;-87
2023/09/25 17:10:59;;;;;;;5.38;2.03;;;;;;;;;;6166539;28;20042;-86
2023/09/25 17:14:00;;;;;;;4.07;1.70;;;;;;;;;;6176199;28;20054;-87
2023/09/25 17:17:02;;;;;;;7.15;2.20;;;;;;;;;;6170614;28;20074;-86
2023/09/25 17:20:05;;;;;;;5.10;2.00;;;;;;;;;;6173189;28;20061;-86
2023/09/25 17:23:08;;;;;;;9.10;5.53;;;;;;;;;;6169079;28;20043;-87
2023/09/25 17:26:10;;;;;;;9.50;5.43;;;;;;;;;;6166473;28;20038;-87
2023/09/25 17:29:11;;;;;;;6.95;3.15;;;;;;;;;;6141723;28;20053;-88
2023/09/25 17:32:13;;;;;;;6.35;3.30;;;;;;;;;;6147986;28;20047;-87
2023/09/25 17:35:15;;;;;;;4.90;3.75;;;;;;;;;;6175451;28;20138;-86
2023/09/25 17:38:20;;;;;;;5.18;3.08;;;;;;;;;;6174808;28;20060;-87
2023/09/25 17:41:22;;;;;;;5.68;3.00;;;;;;;;;;6161435;28;20050;-87
2023/09/25 17:44:29;;;;;;;6.75;3.38;;;;;;;;;;6166057;28;20050;-86
2023/09/25 17:47:36;;;;;;;5.03;3.35;;;;;;;;;;6194021;28;20046;-85
2023/09/25 17:50:38;;;;;;;7.28;4.30;;;;;;;;;;6204289;28;20094;-89
2023/09/25 17:53:40;;;;;;;9.55;6.63;;;;;;;;;;6202787;28;20035;-87
2023/09/25 17:56:46;;;;;;;12.70;7.28;;;;;;;;;;6166118;28;20077;-87
2023/09/25 17:59:48;;;;;;;13.75;8.00;;;;;;;;;;6205519;22;20050;-77
2023/09/25 18:02:50;;;;;;;12.85;8.40;;;;;;;;;;6207239;28;20054;-77
2023/09/25 18:05:52;;;;;;;9.40;6.13;;;;;;;;;;6211002;28;20050;-78
2023/09/25 18:08:54;;;;;;;7.63;4.90;;;;;;;;;;6209815;28;20077;-78
2023/09/25 18:11:56;;;;;;;5.95;4.70;;;;;;;;;;6208149;28;20145;-80
2023/09/25 18:15:03;;;;;;;5.28;3.50;;;;;;;;;;6208318;28;20140;-81
2023/09/25 18:18:05;;;;;;;5.82;3.58;;;;;;;;;;6203346;28;20153;-78